Rozellville, Wisconsin
Current Conditions -  °F | °C
As of 2:54 PM on Tuesday 25 Nov 2014 (Local Time) from KMFI Reporting Station
Clear Clear  
Wind Chill: 13°   Ceiling: Unl
Heat Index: 21°   Visibility: 10mi
Dew Point: 12°   Wind: 6mph
Humidity: 68%   Direction: 290°WNW
Pressure: 30.03"   Gusts: NA
Location:  44.7914°N, 90.0669°W
Report Text: KMFI 252054Z AUTO 29005KT 10SM CLR M06/M11 A3003 RMK AO2 SLP190 T10611111 51007
Loading
Personal Weather Stations






























Interactive Weather Map New forecast layout! Learn more

10-Day Weather Forecast

Advertisements
Track Severe Weather on mobile